createdAt,value
2018-04-08T00:02:00.179Z,6.70
2018-04-08T00:04:26.613Z,6.70
2018-04-08T00:06:53.113Z,6.70
2018-04-08T00:09:20.310Z,6.60
2018-04-08T00:11:46.695Z,6.50
2018-04-08T00:14:13.105Z,6.50
2018-04-08T00:16:39.524Z,6.50
2018-04-08T00:19:05.919Z,6.60
2018-04-08T00:21:33.043Z,6.50
2018-04-08T00:23:59.461Z,6.50
2018-04-08T00:26:25.908Z,6.40
2018-04-08T00:28:52.310Z,6.50
2018-04-08T00:31:18.688Z,6.50
2018-04-08T00:33:45.872Z,6.80
2018-04-08T00:36:12.259Z,6.80
2018-04-08T00:38:38.660Z,7.10
2018-04-08T00:41:05.089Z,7.30
2018-04-08T00:43:31.496Z,7.10
2018-04-08T00:45:57.915Z,7.10
2018-04-08T00:48:24.295Z,7.30
2018-04-08T00:50:50.716Z,7.20
2018-04-08T00:53:17.156Z,7.30
2018-04-08T00:55:43.578Z,7.10
2018-04-08T00:58:09.976Z,7.00
2018-04-08T01:00:36.436Z,7.00
2018-04-08T01:03:02.887Z,6.90
2018-04-08T01:05:29.327Z,7.00
2018-04-08T01:07:55.729Z,6.70
2018-04-08T01:10:22.192Z,6.70
2018-04-08T01:12:49.347Z,6.90
2018-04-08T01:15:15.829Z,6.90
2018-04-08T01:17:42.256Z,6.90
2018-04-08T01:20:09.376Z,6.90
2018-04-08T01:22:35.766Z,6.80
2018-04-08T01:25:02.176Z,7.10
2018-04-08T01:27:28.565Z,7.30
2018-04-08T01:29:56.442Z,7.30
2018-04-08T01:32:22.842Z,7.30
2018-04-08T01:34:49.235Z,7.20
2018-04-08T01:37:15.661Z,7.10
2018-04-08T01:39:42.798Z,7.20
2018-04-08T01:42:09.925Z,7.20
2018-04-08T01:44:36.396Z,7.20
2018-04-08T01:47:02.816Z,7.30
2018-04-08T01:49:29.943Z,7.20
2018-04-08T01:51:57.828Z,6.90
2018-04-08T01:54:24.988Z,6.80
2018-04-08T01:56:52.108Z,6.80
2018-04-08T01:59:19.975Z,6.70
2018-04-08T02:01:47.888Z,6.60
2018-04-08T02:04:14.320Z,6.60
2018-04-08T02:06:40.730Z,6.70
2018-04-08T02:09:07.899Z,6.60
2018-04-08T02:11:34.359Z,6.60
2018-04-08T02:14:01.033Z,6.50
2018-04-08T02:16:27.421Z,6.50
2018-04-08T02:18:53.873Z,6.40
2018-04-08T02:21:20.251Z,6.50
2018-04-08T02:23:47.527Z,6.50
2018-04-08T02:26:13.900Z,6.40
2018-04-08T02:28:40.284Z,6.40
2018-04-08T02:31:06.715Z,6.30
2018-04-08T02:33:33.134Z,6.30
2018-04-08T02:36:00.266Z,6.40
2018-04-08T02:38:27.402Z,6.40
2018-04-08T02:40:53.805Z,6.40
2018-04-08T02:43:20.194Z,6.50
2018-04-08T02:45:47.326Z,6.60
2018-04-08T02:48:13.734Z,6.60
2018-04-08T02:50:40.147Z,6.70
2018-04-08T02:53:06.544Z,6.70
2018-04-08T02:55:33.684Z,6.90
2018-04-08T02:58:00.813Z,7.00
2018-04-08T03:00:27.216Z,6.90
2018-04-08T03:02:53.585Z,6.90
2018-04-08T03:05:19.963Z,6.90
2018-04-08T03:07:46.356Z,7.00
2018-04-08T03:10:13.473Z,7.10
2018-04-08T03:12:39.856Z,7.10
2018-04-08T03:15:06.260Z,7.20
2018-04-08T03:17:32.716Z,7.10
2018-04-08T03:19:59.857Z,7.10
2018-04-08T03:22:26.998Z,7.20
2018-04-08T03:24:53.409Z,7.10
2018-04-08T03:27:19.800Z,7.20
2018-04-08T03:29:46.172Z,7.20
2018-04-08T03:32:12.607Z,7.20
2018-04-08T03:34:39.024Z,7.20
2018-04-08T03:37:05.432Z,7.20
2018-04-08T03:39:31.813Z,7.20
2018-04-08T03:41:59.704Z,7.30
2018-04-08T03:44:26.832Z,7.30
2018-04-08T03:46:54.729Z,7.30
2018-04-08T03:49:21.896Z,7.40
2018-04-08T03:51:48.328Z,7.40
2018-04-08T03:54:14.759Z,7.20
2018-04-08T03:56:41.211Z,7.30
2018-04-08T03:59:07.636Z,7.30
2018-04-08T04:01:34.037Z,7.30
2018-04-08T04:04:01.164Z,7.30
2018-04-08T04:06:27.647Z,7.20
2018-04-08T04:08:54.040Z,7.20
2018-04-08T04:11:20.475Z,7.30
2018-04-08T04:13:46.916Z,7.20
2018-04-08T04:16:14.089Z,7.30
2018-04-08T04:18:52.865Z,7.20
2018-04-08T04:21:31.637Z,7.20
2018-04-08T04:24:10.282Z,7.20
2018-04-08T04:26:36.705Z,7.20
2018-04-08T04:29:03.105Z,7.20
2018-04-08T04:31:30.297Z,7.30
2018-04-08T04:33:56.736Z,7.20
2018-04-08T04:36:23.191Z,7.30
2018-04-08T04:38:49.598Z,7.40
2018-04-08T04:41:15.998Z,7.30
2018-04-08T04:43:42.392Z,7.20
2018-04-08T04:46:08.793Z,7.20
2018-04-08T04:48:35.204Z,7.10
2018-04-08T04:51:01.623Z,7.10
2018-04-08T04:53:28.752Z,7.00
2018-04-08T04:55:55.182Z,7.00
2018-04-08T04:58:21.581Z,7.10
2018-04-08T05:00:47.992Z,7.10
2018-04-08T05:03:14.432Z,7.10
2018-04-08T05:05:40.821Z,7.00
2018-04-08T05:08:07.950Z,7.10
2018-04-08T05:10:34.324Z,7.00
2018-04-08T05:13:00.722Z,7.00
2018-04-08T05:15:27.868Z,7.00
2018-04-08T05:17:54.263Z,7.00
2018-04-08T05:20:20.652Z,7.00
2018-04-08T05:22:47.798Z,7.00
2018-04-08T05:25:14.948Z,7.00
2018-04-08T05:27:42.085Z,6.90
2018-04-08T05:30:09.203Z,6.80
2018-04-08T05:32:35.599Z,6.80
2018-04-08T05:35:02.000Z,6.90
2018-04-08T05:37:29.314Z,7.00
2018-04-08T05:39:55.732Z,6.90
2018-04-08T05:42:22.112Z,7.00
2018-04-08T05:44:48.504Z,6.80
2018-04-08T05:47:14.948Z,6.90
2018-04-08T05:49:41.392Z,6.90
2018-04-08T05:52:07.817Z,6.90
2018-04-08T05:54:34.256Z,7.00
2018-04-08T05:57:00.683Z,7.10
2018-04-08T05:59:27.058Z,7.10
2018-04-08T06:01:54.223Z,7.00
2018-04-08T06:04:20.660Z,7.00
2018-04-08T06:06:47.082Z,7.00
2018-04-08T06:09:14.221Z,7.00
2018-04-08T06:11:41.353Z,7.10
2018-04-08T06:14:07.756Z,7.10
2018-04-08T06:16:34.474Z,7.10
2018-04-08T06:19:00.863Z,7.30
2018-04-08T06:21:27.250Z,7.40
2018-04-08T06:23:53.641Z,7.60
2018-04-08T06:26:20.780Z,7.50
2018-04-08T06:28:47.899Z,7.60
2018-04-08T06:31:14.325Z,7.50
2018-04-08T06:33:40.711Z,7.60
2018-04-08T06:36:07.891Z,8.10
2018-04-08T06:38:34.375Z,8.10
2018-04-08T06:41:00.804Z,8.10
2018-04-08T06:43:27.970Z,8.10
2018-04-08T06:45:55.119Z,8.40
2018-04-08T06:48:22.297Z,9.00
2018-04-08T06:50:48.744Z,8.90
2018-04-08T06:53:15.134Z,8.90
2018-04-08T06:55:42.268Z,9.60
2018-04-08T06:58:08.732Z,9.60
2018-04-08T07:00:35.146Z,9.90
2018-04-08T07:03:02.284Z,10.40
2018-04-08T07:05:28.696Z,10.30
2018-04-08T07:07:55.103Z,10.50
2018-04-08T07:10:21.554Z,10.10
2018-04-08T07:12:47.939Z,9.70
2018-04-08T07:15:15.115Z,9.70
2018-04-08T07:17:41.519Z,9.70
2018-04-08T07:20:08.665Z,10.30
2018-04-08T07:22:35.807Z,10.40
2018-04-08T07:25:02.960Z,10.40
2018-04-08T07:27:30.162Z,10.40
2018-04-08T07:29:56.609Z,10.30
2018-04-08T07:32:23.013Z,10.40
2018-04-08T07:34:49.444Z,10.00
2018-04-08T07:37:15.891Z,10.00
2018-04-08T07:39:42.313Z,10.30
2018-04-08T07:42:08.701Z,10.20
2018-04-08T07:44:35.135Z,10.30
2018-04-08T07:47:02.368Z,10.60
2018-04-08T07:49:29.559Z,10.80
2018-04-08T07:51:56.708Z,11.00
2018-04-08T07:54:23.843Z,11.10
2018-04-08T07:56:51.009Z,10.80
2018-04-08T07:59:17.422Z,10.80
2018-04-08T08:01:50.680Z,10.60
2018-04-08T08:04:17.088Z,10.60
2018-04-08T08:06:43.519Z,10.50
2018-04-08T08:09:09.924Z,10.90
2018-04-08T08:11:37.123Z,11.50
2018-04-08T08:14:03.556Z,11.50
2018-04-08T08:16:30.000Z,11.60
2018-04-08T08:18:56.402Z,11.50
2018-04-08T08:21:22.822Z,11.90
2018-04-08T08:23:49.195Z,11.70
2018-04-08T08:26:15.598Z,11.80
2018-04-08T08:28:42.044Z,12.00
2018-04-08T08:31:08.515Z,12.20
2018-04-08T08:33:35.658Z,12.90
2018-04-08T08:36:03.072Z,12.90
2018-04-08T08:38:29.462Z,13.20
2018-04-08T08:40:55.868Z,13.50
2018-04-08T08:43:22.258Z,13.50
2018-04-08T08:45:48.721Z,14.00
2018-04-08T08:48:15.118Z,14.60
2018-04-08T08:50:41.552Z,15.20
2018-04-08T08:53:08.082Z,14.80
2018-04-08T08:55:34.473Z,14.30
2018-04-08T08:58:00.886Z,13.80
2018-04-08T09:00:27.364Z,14.20
2018-04-08T09:02:54.477Z,14.70
2018-04-08T09:05:20.919Z,14.70
2018-04-08T09:07:47.308Z,15.20
2018-04-08T09:10:13.704Z,15.50
2018-04-08T09:12:40.149Z,15.70
2018-04-08T09:15:06.634Z,16.20
2018-04-08T09:17:33.179Z,16.10
2018-04-08T09:20:01.460Z,16.40
2018-04-08T09:22:33.975Z,16.20
2018-04-08T09:25:03.174Z,15.40
2018-04-08T09:27:30.349Z,15.40
2018-04-08T09:29:56.767Z,15.40
2018-04-08T09:32:23.161Z,14.60
2018-04-08T09:34:49.588Z,14.50
2018-04-08T09:37:16.750Z,15.50
2018-04-08T09:39:43.174Z,15.50
2018-04-08T09:42:09.568Z,15.70
2018-04-08T09:44:35.963Z,15.80
2018-04-08T09:47:03.103Z,15.70
2018-04-08T09:49:30.248Z,15.50
2018-04-08T09:51:56.622Z,15.50
2018-04-08T09:54:23.053Z,15.60
2018-04-08T09:56:49.543Z,15.70
2018-04-08T09:59:29.394Z,16.10
2018-04-08T10:02:30.114Z,16.80
2018-04-08T10:04:56.540Z,16.80
2018-04-08T10:07:23.022Z,16.70
2018-04-08T10:09:49.476Z,17.00
2018-04-08T10:12:15.985Z,17.30
2018-04-08T10:14:43.124Z,18.50
2018-04-08T10:17:10.337Z,18.80
2018-04-08T10:19:36.767Z,18.80
2018-04-08T10:22:03.212Z,18.70
2018-04-08T10:24:29.632Z,18.50
2018-04-08T10:26:56.145Z,18.50
2018-04-08T10:29:22.548Z,18.50
2018-04-08T10:31:49.700Z,18.50
2018-04-08T10:34:16.840Z,19.10
2018-04-08T10:36:43.245Z,19.10
2018-04-08T10:39:09.644Z,19.60
2018-04-08T10:41:36.056Z,18.30
2018-04-08T10:44:03.207Z,17.80
2018-04-08T10:46:30.335Z,18.30
2018-04-08T10:48:56.756Z,18.20
2018-04-08T10:51:23.207Z,18.70
2018-04-08T10:53:50.593Z,17.90
2018-04-08T10:56:16.990Z,17.90
2018-04-08T10:58:43.398Z,17.90
2018-04-08T11:01:09.809Z,17.60
2018-04-08T11:03:36.246Z,18.10
2018-04-08T11:06:02.639Z,18.80
2018-04-08T11:08:29.886Z,20.20
2018-04-08T11:10:56.292Z,20.20
2018-04-08T11:13:22.717Z,20.90
2018-04-08T11:15:49.160Z,21.10
2018-04-08T11:18:15.548Z,21.30
2018-04-08T11:20:42.019Z,21.70
2018-04-08T11:23:08.426Z,20.80
2018-04-08T11:25:34.852Z,21.70
2018-04-08T11:28:01.289Z,21.70
2018-04-08T11:30:27.788Z,20.80
2018-04-08T11:32:54.933Z,19.70
2018-04-08T11:35:21.328Z,19.70
2018-04-08T11:37:47.724Z,19.50
2018-04-08T11:40:14.107Z,19.70
2018-04-08T11:42:40.488Z,20.40
2018-04-08T11:45:06.893Z,21.40
2018-04-08T11:47:34.040Z,20.40
2018-04-08T11:50:01.242Z,20.30
2018-04-08T11:52:27.682Z,20.30
2018-04-08T11:54:54.072Z,20.40
2018-04-08T11:57:21.228Z,21.10
2018-04-08T11:59:48.389Z,20.90
2018-04-08T12:02:15.012Z,20.90
2018-04-08T12:04:42.170Z,20.50
2018-04-08T12:07:09.291Z,20.40
2018-04-08T12:09:35.682Z,20.40
2018-04-08T12:12:02.073Z,20.60
2018-04-08T12:14:28.551Z,20.70
2018-04-08T12:16:55.070Z,21.40
2018-04-08T12:19:21.513Z,22.10
2018-04-08T12:21:47.949Z,22.30
2018-04-08T12:24:14.411Z,22.90
2018-04-08T12:26:41.606Z,22.50
2018-04-08T12:29:08.038Z,22.50
2018-04-08T12:31:34.724Z,21.20
2018-04-08T12:34:02.696Z,21.40
2018-04-08T12:36:29.098Z,21.50
2018-04-08T12:38:55.487Z,22.30
2018-04-08T12:41:23.387Z,23.00
2018-04-08T12:43:49.845Z,23.00
2018-04-08T12:46:16.285Z,22.80
2018-04-08T12:48:42.694Z,22.40
2018-04-08T12:51:09.121Z,21.50
2018-04-08T12:53:35.592Z,20.80
2018-04-08T12:56:01.982Z,20.70
2018-04-08T12:58:28.433Z,20.90
2018-04-08T13:00:54.851Z,21.30
2018-04-08T13:03:21.257Z,20.90
2018-04-08T13:05:48.432Z,20.70
2018-04-08T13:08:15.820Z,20.70
2018-04-08T13:10:42.200Z,21.70
2018-04-08T13:13:08.659Z,21.20
2018-04-08T13:15:35.128Z,20.60
2018-04-08T13:18:01.638Z,20.70
2018-04-08T13:20:28.123Z,20.90
2018-04-08T13:22:54.528Z,20.50
2018-04-08T13:25:20.953Z,20.20
2018-04-08T13:27:47.358Z,20.10
2018-04-08T13:30:13.743Z,20.50
2018-04-08T13:32:40.876Z,19.90
2018-04-08T13:35:07.262Z,19.90
2018-04-08T13:37:34.392Z,20.00
2018-04-08T13:40:01.538Z,19.80
2018-04-08T13:42:28.832Z,19.70
2018-04-08T13:44:55.239Z,19.60
2018-04-08T13:47:22.404Z,19.60
2018-04-08T13:49:48.863Z,19.50
2018-04-08T13:52:15.270Z,19.70
2018-04-08T13:54:41.679Z,19.60
2018-04-08T13:57:08.830Z,19.40
2018-04-08T13:59:35.227Z,19.40
2018-04-08T14:02:01.669Z,19.30
2018-04-08T14:04:28.094Z,19.60
2018-04-08T14:06:54.481Z,19.40
2018-04-08T14:09:21.614Z,19.70
2018-04-08T14:11:48.760Z,19.60
2018-04-08T14:14:16.640Z,19.60
2018-04-08T14:16:43.771Z,19.70
2018-04-08T14:19:10.164Z,19.70
2018-04-08T14:21:36.558Z,19.90
2018-04-08T14:24:03.714Z,19.90
2018-04-08T14:26:31.013Z,20.00
2018-04-08T14:28:57.411Z,20.00
2018-04-08T14:31:23.818Z,19.90
2018-04-08T14:33:50.975Z,19.80
2018-04-08T14:36:18.152Z,19.70
2018-04-08T14:38:44.555Z,19.60
2018-04-08T14:41:11.702Z,19.70
2018-04-08T14:43:38.850Z,19.70
2018-04-08T14:46:06.025Z,19.90
2018-04-08T14:48:32.463Z,19.80
2018-04-08T14:50:59.036Z,20.00
2018-04-08T14:53:25.457Z,19.70
2018-04-08T14:55:51.869Z,19.70
2018-04-08T14:58:18.303Z,19.40
2018-04-08T15:00:44.728Z,19.40
2018-04-08T15:03:11.118Z,19.40
2018-04-08T15:05:37.532Z,19.40
2018-04-08T15:08:03.984Z,19.40
2018-04-08T15:10:30.369Z,19.40
2018-04-08T15:12:56.854Z,19.40
2018-04-08T15:15:23.284Z,19.40
2018-04-08T15:17:49.750Z,19.40
2018-04-08T15:20:16.164Z,19.50
2018-04-08T15:22:43.345Z,19.30
2018-04-08T15:25:09.731Z,19.30
2018-04-08T15:27:36.130Z,19.40
2018-04-08T15:30:04.064Z,19.20
2018-04-08T15:32:31.233Z,19.40
2018-04-08T15:34:57.649Z,19.40
2018-04-08T15:37:24.059Z,19.50
2018-04-08T15:39:51.197Z,19.40
2018-04-08T15:42:17.617Z,19.40
2018-04-08T15:44:44.071Z,19.30
2018-04-08T15:47:10.454Z,19.20
2018-04-08T15:49:36.849Z,19.10
2018-04-08T15:52:03.336Z,19.00
2018-04-08T15:54:29.720Z,18.80
2018-04-08T15:56:56.850Z,18.60
2018-04-08T15:59:23.297Z,18.60
2018-04-08T16:01:50.450Z,18.50
2018-04-08T16:04:17.590Z,18.50
2018-04-08T16:06:43.978Z,18.50
2018-04-08T16:09:10.406Z,18.50
2018-04-08T16:11:36.825Z,18.50
2018-04-08T16:14:03.230Z,18.60
2018-04-08T16:16:29.741Z,18.70
2018-04-08T16:18:56.162Z,18.60
2018-04-08T16:21:22.557Z,18.50
2018-04-08T16:23:48.972Z,18.50
2018-04-08T16:26:16.120Z,18.50
2018-04-08T16:28:43.298Z,18.40
2018-04-08T16:31:09.696Z,18.40
2018-04-08T16:33:36.858Z,18.30
2018-04-08T16:36:04.047Z,18.30
2018-04-08T16:38:30.659Z,18.30
2018-04-08T16:40:57.068Z,18.20
2018-04-08T16:45:56.589Z,18.10
2018-04-08T16:48:22.975Z,18.10
2018-04-08T16:50:49.360Z,18.10
2018-04-08T16:53:16.488Z,18.10
2018-04-08T16:55:42.997Z,18.10
2018-04-08T16:58:09.381Z,18.00
2018-04-08T17:00:36.630Z,17.80
2018-04-08T17:03:03.776Z,17.80
2018-04-08T17:05:30.904Z,18.10
2018-04-08T17:07:57.310Z,18.10
2018-04-08T17:10:23.713Z,18.20
2018-04-08T17:12:50.121Z,18.30
2018-04-08T17:15:17.273Z,18.50
2018-04-08T17:17:44.456Z,18.50
2018-04-08T17:20:10.966Z,18.50
2018-04-08T17:22:38.168Z,18.20
2018-04-08T17:25:04.595Z,18.20
2018-04-08T17:27:31.023Z,18.30
2018-04-08T17:29:57.415Z,17.90
2018-04-08T17:32:24.568Z,17.80
2018-04-08T17:34:51.708Z,17.70
2018-04-08T17:37:18.840Z,17.60
2018-04-08T17:39:45.236Z,17.60
2018-04-08T17:42:12.402Z,17.50
2018-04-08T17:44:39.567Z,17.40
2018-04-08T17:47:06.056Z,17.30
2018-04-08T17:49:33.253Z,17.00
2018-04-08T17:51:59.691Z,17.00
2018-04-08T17:54:26.100Z,17.00
2018-04-08T17:56:52.479Z,16.90
2018-04-08T17:59:18.939Z,17.00
2018-04-08T18:01:46.128Z,16.90
2018-04-08T18:04:12.672Z,16.80
2018-04-08T18:06:40.047Z,17.00
2018-04-08T18:09:06.509Z,17.00
2018-04-08T18:11:32.952Z,17.00
2018-04-08T18:13:59.404Z,17.00
2018-04-08T18:16:25.809Z,16.80
2018-04-08T18:18:53.472Z,16.80
2018-04-08T18:21:19.994Z,16.50
2018-04-08T18:23:47.440Z,16.20
2018-04-08T18:26:13.908Z,16.00
2018-04-08T18:28:41.360Z,15.90
2018-04-08T18:31:07.931Z,15.90
2018-04-08T18:33:35.909Z,15.60
2018-04-08T18:36:03.402Z,15.60
2018-04-08T18:38:31.470Z,15.10
2018-04-08T18:41:00.175Z,15.00
2018-04-08T18:43:26.675Z,15.00
2018-04-08T18:45:53.718Z,15.10
2018-04-08T18:48:20.916Z,14.90
2018-04-08T18:50:47.736Z,15.00
2018-04-08T18:53:15.440Z,14.90
2018-04-08T18:55:42.782Z,14.70
2018-04-08T18:58:10.293Z,14.40
2018-04-08T19:00:37.699Z,14.20
2018-04-08T19:03:04.186Z,14.30
2018-04-08T19:05:32.361Z,14.20
2018-04-08T19:08:00.021Z,14.20
2018-04-08T19:10:29.214Z,14.10
2018-04-08T19:12:56.137Z,14.10
2018-04-08T19:15:22.738Z,14.00
2018-04-08T19:17:57.232Z,13.80
2018-04-08T19:20:24.793Z,13.60
2018-04-08T19:22:52.273Z,13.40
2018-04-08T19:25:19.402Z,13.40
2018-04-08T19:27:46.783Z,13.30
2018-04-08T19:30:20.131Z,13.40
2018-04-08T19:32:47.241Z,13.40
2018-04-08T19:35:13.767Z,13.50
2018-04-08T19:37:40.301Z,13.70
2018-04-08T19:40:06.908Z,13.70
2018-04-08T19:42:34.071Z,12.90
2018-04-08T19:45:00.599Z,12.90
2018-04-08T19:47:27.060Z,12.70
2018-04-08T19:49:54.696Z,12.20
2018-04-08T19:52:21.886Z,12.10
2018-04-08T19:54:48.439Z,12.00
2018-04-08T19:57:14.912Z,12.10
2018-04-08T19:59:41.357Z,12.10
2018-04-08T20:02:07.788Z,12.20
2018-04-08T20:04:36.152Z,12.10
2018-04-08T20:07:04.128Z,12.10
2018-04-08T20:09:31.615Z,12.00
2018-04-08T20:11:58.164Z,12.00
2018-04-08T20:14:24.577Z,11.90
2018-04-08T20:16:52.558Z,11.80
2018-04-08T20:19:19.010Z,11.50
2018-04-08T20:21:46.423Z,11.40
2018-04-08T20:24:12.941Z,11.20
2018-04-08T20:26:39.461Z,11.00
2018-04-08T20:29:06.658Z,10.80
2018-04-08T20:31:33.853Z,10.70
2018-04-08T20:34:01.673Z,10.70
2018-04-08T20:36:28.976Z,10.70
2018-04-08T20:38:56.441Z,10.80
2018-04-08T20:41:22.858Z,10.80
2018-04-08T20:43:49.254Z,10.80
2018-04-08T20:46:15.691Z,10.70
2018-04-08T20:48:42.160Z,10.70
2018-04-08T20:51:08.561Z,10.70
2018-04-08T20:53:34.967Z,10.70
2018-04-08T20:56:02.132Z,10.60
2018-04-08T20:58:28.586Z,10.50
2018-04-08T21:00:55.083Z,10.40
2018-04-08T21:03:21.519Z,10.10
2018-04-08T21:05:48.718Z,9.90
2018-04-08T21:08:15.116Z,9.90
2018-04-08T21:10:42.424Z,9.90
2018-04-08T21:13:09.555Z,9.70
2018-04-08T21:15:37.547Z,9.70
2018-04-08T21:18:04.024Z,9.50
2018-04-08T21:20:30.426Z,9.40
2018-04-08T21:22:56.793Z,9.40
2018-04-08T21:25:23.256Z,9.30
2018-04-08T21:27:49.645Z,9.30
2018-04-08T21:30:16.788Z,9.40
2018-04-08T21:32:43.922Z,9.30
2018-04-08T21:35:10.340Z,9.30
2018-04-08T21:37:38.225Z,9.20
2018-04-08T21:40:04.643Z,9.20
2018-04-08T21:42:32.559Z,9.10
2018-04-08T21:44:59.006Z,9.10
2018-04-08T21:47:25.390Z,9.00
2018-04-08T21:49:51.907Z,9.00
2018-04-08T21:52:18.328Z,8.90
2018-04-08T21:54:44.732Z,8.90
2018-04-08T21:57:11.129Z,8.80
2018-04-08T21:59:38.304Z,8.60
2018-04-08T22:02:04.702Z,8.60
2018-04-08T22:04:32.563Z,8.60
2018-04-08T22:06:58.949Z,8.50
2018-04-08T22:09:25.370Z,8.50
2018-04-08T22:11:52.480Z,8.20
2018-04-08T22:14:18.860Z,8.20
2018-04-08T22:16:45.262Z,8.20
2018-04-08T22:19:12.397Z,8.10
2018-04-08T22:21:38.814Z,8.10
2018-04-08T22:24:05.220Z,8.10
2018-04-08T22:26:31.598Z,8.00
2018-04-08T22:28:57.984Z,7.90
2018-04-08T22:31:24.501Z,8.00
2018-04-08T22:33:50.892Z,8.00
2018-04-08T22:36:17.276Z,8.00
2018-04-08T22:38:43.693Z,7.90
2018-04-08T22:41:10.105Z,7.90
2018-04-08T22:43:37.235Z,7.80
2018-04-08T22:46:03.640Z,7.70
2018-04-08T22:48:30.037Z,7.90
2018-04-08T22:50:56.449Z,7.90
2018-04-08T22:53:23.613Z,7.70
2018-04-08T22:55:50.728Z,7.50
2018-04-08T22:58:17.918Z,7.50
2018-04-08T23:00:44.312Z,7.50
2018-04-08T23:03:10.708Z,7.40
2018-04-08T23:05:37.112Z,7.10
2018-04-08T23:08:03.556Z,7.20
2018-04-08T23:10:29.985Z,7.20
2018-04-08T23:12:56.355Z,7.20
2018-04-08T23:15:22.769Z,7.10
2018-04-08T23:17:49.162Z,7.20
2018-04-08T23:20:16.308Z,6.80
2018-04-08T23:22:43.449Z,6.60
2018-04-08T23:25:09.857Z,6.50
2018-04-08T23:27:37.893Z,6.70
2018-04-08T23:30:04.354Z,6.70
2018-04-08T23:32:30.756Z,6.70
2018-04-08T23:34:57.183Z,6.80
2018-04-08T23:37:23.547Z,6.70
2018-04-08T23:39:49.947Z,6.60
2018-04-08T23:42:16.341Z,6.60
2018-04-08T23:44:42.761Z,6.60
2018-04-08T23:47:09.232Z,6.70
2018-04-08T23:49:36.397Z,6.70
2018-04-08T23:52:02.781Z,6.70
2018-04-08T23:54:30.662Z,6.70
2018-04-08T23:56:57.041Z,6.80
2018-04-08T23:59:23.434Z,6.60
